Time;durP1;ratioP1;P1;durP2;ratioP2;P2;SDS_P1;SDS_P2;PMS_P1;PMS_P2;Temp;Humidity;BMP_temperature;BMP_pressure;BME280_temperature;BME280_humidity;BME280_pressure;Samples;Min_cycle;Max_cycle;Signal;HPM_P1;HPM_P2
2023/04/21 00:01:48;;;;;;;33.50;21.70;;;;;;;;;;4972788;28;20065;-76
2023/04/21 00:04:16;;;;;;;34.22;22.02;;;;;;;;;;4985102;28;20066;-76
2023/04/21 00:06:44;;;;;;;39.33;23.08;;;;;;;;;;4957978;28;20058;-77
2023/04/21 00:09:11;;;;;;;39.67;22.65;;;;;;;;;;4977270;28;20054;-76
2023/04/21 00:11:38;;;;;;;38.50;22.73;;;;;;;;;;5004449;28;20072;-77
2023/04/21 00:14:04;;;;;;;38.65;23.40;;;;;;;;;;4973273;28;20065;-77
2023/04/21 00:16:31;;;;;;;43.28;23.08;;;;;;;;;;4976577;28;20109;-76
2023/04/21 00:18:58;;;;;;;43.60;25.08;;;;;;;;;;4989991;28;20133;-75
2023/04/21 00:21:25;;;;;;;44.53;24.38;;;;;;;;;;5000305;28;20058;-75
2023/04/21 00:23:52;;;;;;;46.72;24.55;;;;;;;;;;4971290;28;20521;-77
2023/04/21 00:26:19;;;;;;;47.90;26.33;;;;;;;;;;4971909;28;20054;-76
2023/04/21 00:28:46;;;;;;;47.97;26.73;;;;;;;;;;4988970;28;20054;-77
2023/04/21 00:31:13;;;;;;;48.97;26.60;;;;;;;;;;4972732;28;20054;-76
2023/04/21 00:33:39;;;;;;;46.55;27.15;;;;;;;;;;4972230;28;20058;-76
2023/04/21 00:36:06;;;;;;;48.83;26.33;;;;;;;;;;4990072;28;20069;-77
2023/04/21 00:38:33;;;;;;;48.55;26.50;;;;;;;;;;4953820;28;20105;-76
2023/04/21 00:41:00;;;;;;;50.25;28.30;;;;;;;;;;4969293;28;20132;-76
2023/04/21 00:43:26;;;;;;;50.45;27.17;;;;;;;;;;4969112;28;20054;-77
2023/04/21 00:45:53;;;;;;;52.47;27.38;;;;;;;;;;4953259;28;20089;-77
2023/04/21 00:48:20;;;;;;;53.63;29.00;;;;;;;;;;4980138;28;20058;-76
2023/04/21 00:50:46;;;;;;;54.97;30.00;;;;;;;;;;4973016;28;20057;-78
2023/04/21 00:53:14;;;;;;;59.70;30.63;;;;;;;;;;4988605;28;20057;-77
2023/04/21 00:55:40;;;;;;;55.97;28.98;;;;;;;;;;4988883;28;20050;-76
2023/04/21 00:58:07;;;;;;;58.45;29.55;;;;;;;;;;5004685;28;20100;-75
2023/04/21 01:00:35;;;;;;;54.85;29.05;;;;;;;;;;4986021;28;20572;-76
2023/04/21 01:03:02;;;;;;;53.80;26.23;;;;;;;;;;4972603;28;20050;-76
2023/04/21 01:05:30;;;;;;;52.00;27.98;;;;;;;;;;4989627;28;20466;-77
2023/04/21 01:07:56;;;;;;;42.83;23.98;;;;;;;;;;4974388;28;20062;-76
2023/04/21 01:10:23;;;;;;;40.13;23.75;;;;;;;;;;4980729;28;20180;-76
2023/04/21 01:12:50;;;;;;;45.95;24.33;;;;;;;;;;4976120;28;20062;-76
2023/04/21 01:15:16;;;;;;;48.28;23.80;;;;;;;;;;4991522;28;20055;-75
2023/04/21 01:17:44;;;;;;;40.33;22.60;;;;;;;;;;4992044;28;20097;-76
2023/04/21 01:20:12;;;;;;;44.53;23.63;;;;;;;;;;4966228;28;20065;-77
2023/04/21 01:22:46;;;;;;;43.28;23.00;;;;;;;;;;4977512;28;20057;-77
2023/04/21 01:25:13;;;;;;;40.38;21.73;;;;;;;;;;4960451;28;20050;-78
2023/04/21 01:27:40;;;;;;;44.53;23.30;;;;;;;;;;4991512;28;20137;-76
2023/04/21 01:30:08;;;;;;;38.78;22.23;;;;;;;;;;5007926;28;20054;-76
2023/04/21 01:32:35;;;;;;;29.55;19.30;;;;;;;;;;4959881;28;20062;-77
2023/04/21 01:35:03;;;;;;;34.45;20.08;;;;;;;;;;4980925;28;20438;-76
2023/04/21 01:37:31;;;;;;;32.97;19.52;;;;;;;;;;4975571;28;20058;-77
2023/04/21 01:40:00;;;;;;;35.65;20.25;;;;;;;;;;4959779;28;20050;-77
2023/04/21 01:42:28;;;;;;;40.38;19.65;;;;;;;;;;4975031;28;20419;-77
2023/04/21 01:44:55;;;;;;;44.78;19.65;;;;;;;;;;4959438;28;20117;-77
2023/04/21 01:47:23;;;;;;;37.70;18.15;;;;;;;;;;4975487;28;20058;-77
2023/04/21 01:49:50;;;;;;;84.18;21.13;;;;;;;;;;4975067;28;20076;-78
2023/04/21 01:52:16;;;;;;;172.45;22.30;;;;;;;;;;4967320;28;20501;-76
2023/04/21 01:54:43;;;;;;;152.00;22.13;;;;;;;;;;4991523;28;20745;-76
2023/04/21 01:57:10;;;;;;;192.05;22.77;;;;;;;;;;5004253;28;20061;-76
2023/04/21 01:59:37;;;;;;;243.48;26.52;;;;;;;;;;4973787;28;20063;-76
2023/04/21 02:02:04;;;;;;;279.88;27.13;;;;;;;;;;4987144;28;20061;-79
2023/04/21 02:04:31;;;;;;;139.50;21.95;;;;;;;;;;4975283;28;20054;-76
2023/04/21 02:06:58;;;;;;;108.90;20.83;;;;;;;;;;4975393;28;20568;-79
2023/04/21 02:09:24;;;;;;;122.32;21.42;;;;;;;;;;4972784;28;20050;-76
2023/04/21 02:11:51;;;;;;;57.60;20.17;;;;;;;;;;5006946;28;20053;-76
2023/04/21 02:14:18;;;;;;;60.40;22.35;;;;;;;;;;5006995;28;20068;-77
2023/04/21 02:16:45;;;;;;;107.97;21.23;;;;;;;;;;5007312;28;20061;-76
2023/04/21 02:19:11;;;;;;;57.05;19.75;;;;;;;;;;5002629;28;20081;-76
2023/04/21 02:21:38;;;;;;;49.30;19.92;;;;;;;;;;4981965;28;20058;-77
2023/04/21 02:24:05;;;;;;;68.70;21.00;;;;;;;;;;4995224;28;20066;-76
2023/04/21 02:26:32;;;;;;;43.45;18.13;;;;;;;;;;4981287;28;20506;-76
2023/04/21 02:28:58;;;;;;;94.78;21.70;;;;;;;;;;4980802;28;20085;-77
2023/04/21 02:31:25;;;;;;;76.45;20.55;;;;;;;;;;4968489;28;20058;-77
2023/04/21 02:33:53;;;;;;;97.75;19.63;;;;;;;;;;4975256;28;20046;-76
2023/04/21 02:36:20;;;;;;;103.68;21.52;;;;;;;;;;4981010;28;20077;-77
2023/04/21 02:38:47;;;;;;;136.70;20.73;;;;;;;;;;4963166;28;20418;-77
2023/04/21 02:41:13;;;;;;;177.60;21.73;;;;;;;;;;5003925;28;20634;-76
2023/04/21 02:43:40;;;;;;;95.80;19.42;;;;;;;;;;4996153;28;20129;-76
2023/04/21 02:46:07;;;;;;;76.18;18.25;;;;;;;;;;4999008;28;20057;-78
2023/04/21 02:48:35;;;;;;;53.53;18.45;;;;;;;;;;4993328;28;20050;-77
2023/04/21 02:51:03;;;;;;;43.78;19.23;;;;;;;;;;4969556;28;20061;-77
2023/04/21 02:53:29;;;;;;;85.13;19.08;;;;;;;;;;4989739;28;20396;-76
2023/04/21 02:55:56;;;;;;;77.13;18.42;;;;;;;;;;4989531;28;20077;-76
2023/04/21 02:58:24;;;;;;;71.80;17.40;;;;;;;;;;4990701;28;20046;-77
2023/04/21 03:00:50;;;;;;;73.22;18.50;;;;;;;;;;4988173;28;20050;-78
2023/04/21 03:03:17;;;;;;;54.60;17.98;;;;;;;;;;4977251;28;20085;-77
2023/04/21 03:05:44;;;;;;;86.25;18.98;;;;;;;;;;4990920;28;20062;-76
2023/04/21 03:08:11;;;;;;;65.07;18.30;;;;;;;;;;4982884;28;20074;-77
2023/04/21 03:10:38;;;;;;;65.68;18.98;;;;;;;;;;4966352;28;20415;-76
2023/04/21 03:13:05;;;;;;;53.50;17.40;;;;;;;;;;4974579;28;20054;-76
2023/04/21 03:15:32;;;;;;;80.65;16.83;;;;;;;;;;4974531;28;20065;-76
2023/04/21 03:17:58;;;;;;;50.25;14.90;;;;;;;;;;4969943;28;20399;-76
2023/04/21 03:20:25;;;;;;;119.43;17.15;;;;;;;;;;4989629;28;20058;-76
2023/04/21 03:22:53;;;;;;;159.25;18.20;;;;;;;;;;4990655;28;20057;-77
2023/04/21 03:25:20;;;;;;;129.00;16.65;;;;;;;;;;4973774;28;20535;-77
2023/04/21 03:27:47;;;;;;;94.88;15.10;;;;;;;;;;4972316;28;20058;-76
2023/04/21 03:30:13;;;;;;;209.32;20.38;;;;;;;;;;4989240;28;20054;-76
2023/04/21 03:32:40;;;;;;;117.00;17.95;;;;;;;;;;4975506;28;20058;-76
2023/04/21 03:35:07;;;;;;;83.55;17.17;;;;;;;;;;4974024;28;20058;-76
2023/04/21 03:37:34;;;;;;;174.18;19.25;;;;;;;;;;4973753;28;20086;-78
2023/04/21 03:40:00;;;;;;;261.48;21.95;;;;;;;;;;4973580;28;20043;-77
2023/04/21 03:42:28;;;;;;;62.58;16.10;;;;;;;;;;4975017;28;20054;-77
2023/04/21 03:44:55;;;;;;;88.20;16.38;;;;;;;;;;4971054;28;20153;-79
2023/04/21 03:47:22;;;;;;;80.85;17.33;;;;;;;;;;4989087;28;20058;-79
2023/04/21 03:49:49;;;;;;;94.88;18.10;;;;;;;;;;4979381;28;20049;-77
2023/04/21 03:52:16;;;;;;;62.90;17.85;;;;;;;;;;4973566;28;20058;-77
2023/04/21 03:54:43;;;;;;;84.20;17.42;;;;;;;;;;4973515;28;20057;-78
2023/04/21 03:57:09;;;;;;;38.40;15.93;;;;;;;;;;4973519;28;20073;-78
2023/04/21 03:59:36;;;;;;;72.10;21.58;;;;;;;;;;4957792;28;20089;-77
2023/04/21 04:02:03;;;;;;;46.55;19.00;;;;;;;;;;4973144;28;20104;-78
2023/04/21 04:04:30;;;;;;;41.83;17.70;;;;;;;;;;4974120;28;20134;-77
2023/04/21 04:06:57;;;;;;;61.78;17.65;;;;;;;;;;4941822;28;20090;-77
2023/04/21 04:09:24;;;;;;;62.45;16.75;;;;;;;;;;4954655;28;20061;-77
2023/04/21 04:11:52;;;;;;;36.60;14.85;;;;;;;;;;4971930;28;20064;-76
2023/04/21 04:14:21;;;;;;;55.42;17.00;;;;;;;;;;4956454;28;20050;-77
2023/04/21 04:16:52;;;;;;;31.08;15.73;;;;;;;;;;4958808;28;20063;-77
2023/04/21 04:19:22;;;;;;;45.15;15.93;;;;;;;;;;4954132;28;20046;-76
2023/04/21 04:21:50;;;;;;;37.42;16.95;;;;;;;;;;4980796;28;20051;-77
2023/04/21 04:24:35;;;;;;;33.45;16.30;;;;;;;;;;4967583;28;20066;-76
2023/04/21 04:27:03;;;;;;;43.28;18.20;;;;;;;;;;4967312;28;20082;-77
2023/04/21 04:29:31;;;;;;;46.60;17.60;;;;;;;;;;4965091;28;20046;-78
2023/04/21 04:32:00;;;;;;;40.90;19.15;;;;;;;;;;4978448;28;20057;-77
2023/04/21 04:34:28;;;;;;;68.05;21.00;;;;;;;;;;4964510;28;20051;-77
2023/04/21 04:37:03;;;;;;;58.85;20.85;;;;;;;;;;4978546;28;20283;-76
2023/04/21 04:39:39;;;;;;;52.88;19.15;;;;;;;;;;4963248;28;20051;-75
2023/04/21 04:42:13;;;;;;;63.50;19.23;;;;;;;;;;4981219;28;20419;-75
2023/04/21 04:44:43;;;;;;;95.38;19.35;;;;;;;;;;4974577;28;20054;-76
2023/04/21 04:47:11;;;;;;;103.93;19.08;;;;;;;;;;4988463;28;20129;-76
2023/04/21 04:49:38;;;;;;;58.50;18.92;;;;;;;;;;4976637;28;20663;-77
2023/04/21 04:52:04;;;;;;;43.00;17.35;;;;;;;;;;4991793;28;20058;-77
2023/04/21 04:54:31;;;;;;;45.75;18.23;;;;;;;;;;4996077;28;20163;-76
2023/04/21 04:56:58;;;;;;;96.30;18.33;;;;;;;;;;4980108;28;20578;-77
2023/04/21 04:59:25;;;;;;;74.07;18.08;;;;;;;;;;4980198;28;20494;-77
2023/04/21 05:01:55;;;;;;;67.60;18.58;;;;;;;;;;4981021;28;20421;-77
2023/04/21 05:04:22;;;;;;;35.95;17.40;;;;;;;;;;4979837;28;20058;-77
2023/04/21 05:06:49;;;;;;;109.63;18.42;;;;;;;;;;4996439;28;20445;-78
2023/04/21 05:09:16;;;;;;;45.03;16.10;;;;;;;;;;4979973;28;20053;-78
2023/04/21 05:11:43;;;;;;;54.72;17.35;;;;;;;;;;4956433;28;20426;-76
2023/04/21 05:14:10;;;;;;;39.15;17.42;;;;;;;;;;4989458;28;20064;-77
2023/04/21 05:16:37;;;;;;;33.70;16.13;;;;;;;;;;4982108;28;20042;-76
2023/04/21 05:19:04;;;;;;;30.75;16.85;;;;;;;;;;4981524;28;20050;-75
2023/04/21 05:21:32;;;;;;;29.23;17.23;;;;;;;;;;4944339;28;20419;-77
2023/04/21 05:23:59;;;;;;;28.95;17.58;;;;;;;;;;4975912;28;20062;-77
2023/04/21 05:26:28;;;;;;;28.08;16.60;;;;;;;;;;4992304;28;20058;-77
2023/04/21 05:28:55;;;;;;;33.88;16.63;;;;;;;;;;4975769;28;20054;-78
2023/04/21 05:31:25;;;;;;;29.77;17.00;;;;;;;;;;4975745;28;20058;-77
2023/04/21 05:33:52;;;;;;;28.90;17.38;;;;;;;;;;4976200;28;20050;-77
2023/04/21 05:36:23;;;;;;;59.30;17.80;;;;;;;;;;4976656;28;20073;-77
2023/04/21 05:38:51;;;;;;;59.83;17.80;;;;;;;;;;4975629;28;20574;-77
2023/04/21 05:41:18;;;;;;;76.90;18.30;;;;;;;;;;4976008;28;20141;-77
2023/04/21 05:43:46;;;;;;;27.02;16.95;;;;;;;;;;4992219;28;20058;-78
2023/04/21 05:46:13;;;;;;;70.10;17.98;;;;;;;;;;4976092;28;20089;-78
2023/04/21 05:48:40;;;;;;;27.45;16.75;;;;;;;;;;4975434;28;20141;-79
2023/04/21 05:51:10;;;;;;;31.17;16.52;;;;;;;;;;4959934;28;20058;-78
2023/04/21 05:53:39;;;;;;;44.80;15.85;;;;;;;;;;4977723;28;20060;-77
2023/04/21 05:56:07;;;;;;;64.30;16.10;;;;;;;;;;4961288;28;20109;-76
2023/04/21 05:58:34;;;;;;;22.52;15.57;;;;;;;;;;4974494;28;20054;-75
2023/04/21 06:01:02;;;;;;;28.48;17.40;;;;;;;;;;4995535;28;20082;-77
2023/04/21 06:03:32;;;;;;;25.88;17.35;;;;;;;;;;4975157;28;20482;-77
2023/04/21 06:06:00;;;;;;;25.50;15.77;;;;;;;;;;4958687;28;20684;-76
2023/04/21 06:08:26;;;;;;;30.50;17.73;;;;;;;;;;4974728;28;20426;-76
2023/04/21 06:10:53;;;;;;;28.90;17.52;;;;;;;;;;4974103;28;20699;-76
2023/04/21 06:13:20;;;;;;;26.95;17.48;;;;;;;;;;4974768;28;20240;-77
2023/04/21 06:15:47;;;;;;;26.38;16.33;;;;;;;;;;4958316;28;20054;-76
2023/04/21 06:18:14;;;;;;;26.55;17.65;;;;;;;;;;4957791;28;20058;-76
2023/04/21 06:20:41;;;;;;;25.55;16.90;;;;;;;;;;4958062;28;20051;-75
2023/04/21 06:23:08;;;;;;;24.52;16.88;;;;;;;;;;4989830;28;20502;-76
2023/04/21 06:25:35;;;;;;;23.92;16.25;;;;;;;;;;4989921;28;20062;-75
2023/04/21 06:28:02;;;;;;;22.95;16.65;;;;;;;;;;4957960;28;20061;-76
2023/04/21 06:30:28;;;;;;;24.05;17.00;;;;;;;;;;4957730;28;20054;-76
2023/04/21 06:32:55;;;;;;;40.55;17.73;;;;;;;;;;4974307;28;20058;-75
2023/04/21 06:35:22;;;;;;;34.47;17.85;;;;;;;;;;4973819;28;20133;-76
2023/04/21 06:37:49;;;;;;;26.55;18.42;;;;;;;;;;4954229;28;20061;-76
2023/04/21 06:40:15;;;;;;;30.17;19.70;;;;;;;;;;4970270;28;20051;-76
2023/04/21 06:42:42;;;;;;;28.95;20.08;;;;;;;;;;4954087;28;20416;-78
2023/04/21 06:45:09;;;;;;;28.70;18.60;;;;;;;;;;4984535;28;20046;-81
2023/04/21 06:47:40;;;;;;;22.02;16.45;;;;;;;;;;4977259;28;20051;-81
2023/04/21 06:50:09;;;;;;;25.45;16.95;;;;;;;;;;4988601;28;20102;-83
2023/04/21 06:52:36;;;;;;;22.92;15.18;;;;;;;;;;4962876;28;20062;-81
2023/04/21 06:55:03;;;;;;;20.67;15.82;;;;;;;;;;4980192;28;20063;-81
2023/04/21 06:57:30;;;;;;;20.98;15.45;;;;;;;;;;4959937;28;20730;-83
2023/04/21 06:59:57;;;;;;;17.20;13.55;;;;;;;;;;4996598;28;20046;-81
2023/04/21 07:02:24;;;;;;;20.38;14.50;;;;;;;;;;4945904;28;20066;-80
2023/04/21 07:04:51;;;;;;;18.80;14.27;;;;;;;;;;4997512;28;20101;-81
2023/04/21 07:07:18;;;;;;;20.77;15.23;;;;;;;;;;4996226;28;20137;-81
2023/04/21 07:09:47;;;;;;;17.80;14.05;;;;;;;;;;4971843;28;20080;-80
2023/04/21 07:12:14;;;;;;;19.48;14.88;;;;;;;;;;5002367;28;20081;-79
2023/04/21 07:14:40;;;;;;;19.60;14.77;;;;;;;;;;5009726;28;20504;-80
2023/04/21 07:17:07;;;;;;;17.88;13.98;;;;;;;;;;4948583;28;20054;-80
2023/04/21 07:19:34;;;;;;;17.75;13.70;;;;;;;;;;4943569;28;20058;-80
2023/04/21 07:22:01;;;;;;;19.35;14.23;;;;;;;;;;4964819;28;20055;-76
2023/04/21 07:24:28;;;;;;;19.15;15.23;;;;;;;;;;4979893;28;20050;-76
2023/04/21 07:26:55;;;;;;;17.17;14.00;;;;;;;;;;4989830;28;20141;-76
2023/04/21 07:29:22;;;;;;;16.83;14.10;;;;;;;;;;4994512;28;20050;-75
2023/04/21 07:31:48;;;;;;;16.88;13.75;;;;;;;;;;4954560;28;20058;-75
2023/04/21 07:34:15;;;;;;;19.02;13.27;;;;;;;;;;4954552;28;20478;-76
2023/04/21 07:36:42;;;;;;;16.95;13.35;;;;;;;;;;4954457;28;20138;-75
2023/04/21 07:39:09;;;;;;;14.88;12.43;;;;;;;;;;4984412;28;20054;-76
2023/04/21 07:41:36;;;;;;;15.63;12.15;;;;;;;;;;4972105;28;20104;-76
2023/04/21 07:44:02;;;;;;;14.73;12.02;;;;;;;;;;4967155;28;20085;-76
2023/04/21 07:46:30;;;;;;;14.38;12.13;;;;;;;;;;4957503;28;20117;-76
2023/04/21 07:48:58;;;;;;;16.13;12.35;;;;;;;;;;4966950;28;20479;-75
2023/04/21 07:51:26;;;;;;;14.75;12.38;;;;;;;;;;4996426;28;20085;-75
2023/04/21 07:53:53;;;;;;;13.57;11.38;;;;;;;;;;4976801;28;20050;-75
2023/04/21 07:56:20;;;;;;;13.75;11.40;;;;;;;;;;4981421;28;20081;-75
2023/04/21 07:58:47;;;;;;;16.52;12.43;;;;;;;;;;4989583;28;20086;-75
2023/04/21 08:01:14;;;;;;;14.45;12.07;;;;;;;;;;4977878;28;20065;-75
2023/04/21 08:03:41;;;;;;;14.95;11.35;;;;;;;;;;4989887;28;20059;-77
2023/04/21 08:06:08;;;;;;;13.90;11.55;;;;;;;;;;4959298;28;20700;-77
2023/04/21 08:08:36;;;;;;;13.98;11.38;;;;;;;;;;4975882;28;20502;-77
2023/04/21 08:11:02;;;;;;;11.68;10.02;;;;;;;;;;4941417;28;20121;-79
2023/04/21 08:13:30;;;;;;;13.23;11.02;;;;;;;;;;4989008;28;20062;-77
2023/04/21 08:15:57;;;;;;;13.85;10.75;;;;;;;;;;4973056;28;20062;-77
2023/04/21 08:18:25;;;;;;;12.43;10.00;;;;;;;;;;4974179;28;20058;-78
2023/04/21 08:20:52;;;;;;;15.50;11.90;;;;;;;;;;4961187;28;20058;-76
2023/04/21 08:23:19;;;;;;;14.98;10.98;;;;;;;;;;4953714;28;20058;-79
2023/04/21 08:25:46;;;;;;;12.88;11.05;;;;;;;;;;4971846;28;20150;-78
2023/04/21 08:28:14;;;;;;;12.38;10.70;;;;;;;;;;4955550;28;20065;-77
2023/04/21 08:30:41;;;;;;;13.07;11.35;;;;;;;;;;4977077;28;20054;-78
2023/04/21 08:33:12;;;;;;;12.07;10.43;;;;;;;;;;4941527;28;20447;-79
2023/04/21 08:35:40;;;;;;;13.45;11.00;;;;;;;;;;4955140;28;20058;-78
2023/04/21 08:38:26;;;;;;;12.32;9.75;;;;;;;;;;4963502;28;20105;-77
2023/04/21 08:40:53;;;;;;;12.10;10.60;;;;;;;;;;4940893;28;20083;-77
2023/04/21 08:43:20;;;;;;;11.57;10.35;;;;;;;;;;4955237;28;20058;-76
2023/04/21 08:45:46;;;;;;;12.07;10.18;;;;;;;;;;4972951;28;20422;-76
2023/04/21 08:48:17;;;;;;;11.70;10.07;;;;;;;;;;4972679;28;20066;-76
2023/04/21 08:50:45;;;;;;;12.45;10.00;;;;;;;;;;4957729;28;20058;-75
2023/04/21 08:53:12;;;;;;;13.95;11.35;;;;;;;;;;4986142;28;20069;-75
2023/04/21 08:55:42;;;;;;;11.68;10.48;;;;;;;;;;4971395;28;20054;-74
2023/04/21 08:58:10;;;;;;;12.18;10.88;;;;;;;;;;4961718;28;20054;-74
2023/04/21 09:00:40;;;;;;;10.88;9.48;;;;;;;;;;4993793;28;20050;-75
2023/04/21 09:03:07;;;;;;;7.90;7.10;;;;;;;;;;4977566;28;20054;-74
2023/04/21 09:06:04;;;;;;;8.45;7.47;;;;;;;;;;4983373;28;20506;-75
2023/04/21 09:08:33;;;;;;;8.70;6.80;;;;;;;;;;4977275;28;20238;-74
2023/04/21 09:11:00;;;;;;;8.38;6.88;;;;;;;;;;4979318;28;20061;-76
2023/04/21 09:13:34;;;;;;;7.10;6.40;;;;;;;;;;4983411;28;20081;-74
2023/04/21 09:16:04;;;;;;;6.50;5.88;;;;;;;;;;4977580;28;20050;-75
2023/04/21 09:18:35;;;;;;;6.38;5.78;;;;;;;;;;4973441;28;20104;-76
2023/04/21 09:21:11;;;;;;;7.93;6.88;;;;;;;;;;4969494;28;20537;-76
2023/04/21 09:23:49;;;;;;;7.60;6.25;;;;;;;;;;4995926;28;20066;-78
2023/04/21 09:26:17;;;;;;;8.88;7.10;;;;;;;;;;4961732;28;20066;-78
2023/04/21 09:28:46;;;;;;;7.65;6.72;;;;;;;;;;4984886;28;20090;-78
2023/04/21 09:31:23;;;;;;;8.38;6.28;;;;;;;;;;4986258;28;20060;-77
2023/04/21 09:33:55;;;;;;;7.80;6.90;;;;;;;;;;4977652;28;20121;-76
2023/04/21 09:36:28;;;;;;;7.90;6.95;;;;;;;;;;5000434;28;20128;-77
2023/04/21 09:38:56;;;;;;;6.93;6.18;;;;;;;;;;4981144;28;20065;-77
2023/04/21 09:41:43;;;;;;;7.88;7.03;;;;;;;;;;4998842;28;20054;-77
2023/04/21 09:44:10;;;;;;;8.05;6.20;;;;;;;;;;4984069;28;20054;-76
2023/04/21 09:46:38;;;;;;;7.13;6.18;;;;;;;;;;4988075;28;20057;-79
2023/04/21 09:49:05;;;;;;;7.03;5.70;;;;;;;;;;4992207;28;20104;-77
2023/04/21 09:51:32;;;;;;;7.55;6.40;;;;;;;;;;4964353;28;20058;-77
2023/04/21 09:54:23;;;;;;;6.88;6.15;;;;;;;;;;4982698;28;20124;-77
2023/04/21 09:56:53;;;;;;;6.63;5.35;;;;;;;;;;5001279;28;20076;-77
2023/04/21 09:59:26;;;;;;;6.40;5.68;;;;;;;;;;4965084;28;20069;-77
2023/04/21 10:01:53;;;;;;;7.43;6.43;;;;;;;;;;4983354;28;20050;-78
2023/04/21 10:04:21;;;;;;;7.55;6.30;;;;;;;;;;4966134;28;20050;-78
2023/04/21 10:06:48;;;;;;;7.85;5.22;;;;;;;;;;4977301;28;20449;-77
2023/04/21 10:09:15;;;;;;;8.45;6.72;;;;;;;;;;4972710;28;20065;-79
2023/04/21 10:11:48;;;;;;;7.80;5.57;;;;;;;;;;4965682;28;20413;-78
2023/04/21 10:14:15;;;;;;;;;;;;;;;;;;4975661;28;20065;-77
2023/04/21 10:16:42;;;;;;;6.95;5.13;;;;;;;;;;4976501;28;19969;-78
2023/04/21 10:19:25;;;;;;;7.50;5.65;;;;;;;;;;4977854;28;20059;-77
2023/04/21 10:21:56;;;;;;;6.07;5.22;;;;;;;;;;4974979;28;20055;-78
2023/04/21 10:24:23;;;;;;;6.05;5.40;;;;;;;;;;4946512;28;20058;-77
2023/04/21 10:26:50;;;;;;;6.38;4.50;;;;;;;;;;4959475;28;20058;-77
2023/04/21 10:29:32;;;;;;;7.78;5.15;;;;;;;;;;4991295;28;20451;-78
2023/04/21 10:33:06;;;;;;;6.15;5.50;;;;;;;;;;4991839;28;20054;-77
2023/04/21 10:36:02;;;;;;;6.55;5.25;;;;;;;;;;4934729;28;20101;-77
2023/04/21 10:38:42;;;;;;;6.43;5.13;;;;;;;;;;4954895;28;20046;-78
2023/04/21 10:41:29;;;;;;;6.70;5.18;;;;;;;;;;4955559;28;20058;-78
2023/04/21 10:44:12;;;;;;;7.97;5.65;;;;;;;;;;4942113;28;20070;-77
2023/04/21 10:46:40;;;;;;;;;;;;;;;;;;4991380;28;20058;-78
2023/04/21 10:49:24;;;;;;;7.70;5.93;;;;;;;;;;4975114;28;19922;-78
2023/04/21 10:52:01;;;;;;;10.75;5.85;;;;;;;;;;4974993;28;20446;-78
2023/04/21 10:54:40;;;;;;;6.60;5.90;;;;;;;;;;4988301;28;20046;-77
2023/04/21 10:57:10;;;;;;;6.28;5.50;;;;;;;;;;4991157;28;20062;-78
2023/04/21 10:59:37;;;;;;;5.00;4.43;;;;;;;;;;4991166;28;20057;-77
2023/04/21 11:02:07;;;;;;;6.00;5.07;;;;;;;;;;4974413;28;20061;-78
2023/04/21 11:04:34;;;;;;;7.03;4.93;;;;;;;;;;4958462;28;20054;-77
2023/04/21 11:07:12;;;;;;;9.20;4.90;;;;;;;;;;4959241;28;20065;-77
2023/04/21 11:09:40;;;;;;;5.70;4.88;;;;;;;;;;4975101;28;20062;-77
2023/04/21 11:12:12;;;;;;;5.75;4.80;;;;;;;;;;4974088;28;20117;-78
2023/04/21 11:14:40;;;;;;;6.03;5.43;;;;;;;;;;4988742;28;20054;-78
2023/04/21 11:17:15;;;;;;;5.32;4.72;;;;;;;;;;4990392;28;20061;-78
2023/04/21 11:19:49;;;;;;;6.63;5.32;;;;;;;;;;4990316;28;20061;-78
2023/04/21 11:22:21;;;;;;;5.93;4.78;;;;;;;;;;4959255;28;20058;-79
2023/04/21 11:24:49;;;;;;;6.40;5.43;;;;;;;;;;4967271;28;20055;-78
2023/04/21 11:27:16;;;;;;;6.97;5.38;;;;;;;;;;4939489;28;20054;-77
2023/04/21 11:29:47;;;;;;;5.20;4.70;;;;;;;;;;4971103;28;20071;-78
2023/04/21 11:32:14;;;;;;;4.90;4.40;;;;;;;;;;4971927;28;20404;-78
2023/04/21 11:34:41;;;;;;;5.07;4.57;;;;;;;;;;4961485;28;20050;-77
2023/04/21 11:37:09;;;;;;;5.53;5.03;;;;;;;;;;4990194;28;20528;-77
2023/04/21 11:39:39;;;;;;;6.65;5.05;;;;;;;;;;4989970;28;20062;-78
2023/04/21 11:42:06;;;;;;;5.28;4.78;;;;;;;;;;4989976;28;20495;-76
2023/04/21 11:44:40;;;;;;;4.72;4.30;;;;;;;;;;4972008;28;20499;-76
2023/04/21 11:47:16;;;;;;;5.03;4.18;;;;;;;;;;4974275;28;20058;-76
2023/04/21 11:49:53;;;;;;;5.85;4.90;;;;;;;;;;4989753;28;20503;-76
2023/04/21 11:52:21;;;;;;;5.07;4.32;;;;;;;;;;4990227;28;20526;-77
2023/04/21 11:54:48;;;;;;;4.57;4.07;;;;;;;;;;4989578;28;20042;-75
2023/04/21 11:57:17;;;;;;;5.38;4.30;;;;;;;;;;4973338;28;20058;-76
2023/04/21 11:59:45;;;;;;;4.32;3.92;;;;;;;;;;4973386;28;20062;-76
2023/04/21 12:02:21;;;;;;;3.60;3.28;;;;;;;;;;4957963;28;20061;-77
2023/04/21 12:05:08;;;;;;;5.32;4.13;;;;;;;;;;4967109;28;20651;-77
2023/04/21 12:07:43;;;;;;;3.90;3.45;;;;;;;;;;4938535;28;20062;-76
2023/04/21 12:10:16;;;;;;;4.07;3.67;;;;;;;;;;4969767;28;20070;-76
2023/04/21 12:12:43;;;;;;;4.20;3.83;;;;;;;;;;4970249;28;20146;-76
2023/04/21 12:15:11;;;;;;;3.40;3.10;;;;;;;;;;4963355;28;20058;-76
2023/04/21 12:17:46;;;;;;;3.67;3.38;;;;;;;;;;4989313;28;20267;-76
2023/04/21 12:20:17;;;;;;;3.40;3.10;;;;;;;;;;4972957;28;20058;-77
2023/04/21 12:22:44;;;;;;;3.10;2.80;;;;;;;;;;4957574;28;20065;-77
2023/04/21 12:25:11;;;;;;;3.53;2.40;;;;;;;;;;4968243;28;20061;-75
2023/04/21 12:27:50;;;;;;;3.00;2.70;;;;;;;;;;4989719;28;20054;-75
2023/04/21 12:30:17;;;;;;;3.17;2.88;;;;;;;;;;4973101;28;20144;-76
2023/04/21 12:32:44;;;;;;;4.00;2.58;;;;;;;;;;4987771;28;20141;-74
2023/04/21 12:35:11;;;;;;;3.17;2.85;;;;;;;;;;4971490;28;20514;-75
2023/04/21 12:37:38;;;;;;;3.75;2.88;;;;;;;;;;4956067;28;20065;-75
2023/04/21 12:40:06;;;;;;;3.60;2.72;;;;;;;;;;4971900;28;20065;-76
2023/04/21 12:42:33;;;;;;;3.25;2.72;;;;;;;;;;4987837;28;20050;-76
2023/04/21 12:45:04;;;;;;;2.80;2.50;;;;;;;;;;4988278;28;20162;-75
2023/04/21 12:47:31;;;;;;;4.32;2.50;;;;;;;;;;4971930;28;20083;-75
2023/04/21 12:49:57;;;;;;;2.78;2.58;;;;;;;;;;4952721;28;20063;-75
2023/04/21 12:52:25;;;;;;;4.18;2.28;;;;;;;;;;4952337;28;20047;-75
2023/04/21 12:54:51;;;;;;;3.00;2.67;;;;;;;;;;4958651;28;20050;-75
2023/04/21 12:57:19;;;;;;;2.67;2.47;;;;;;;;;;4987732;28;20642;-75
2023/04/21 12:59:46;;;;;;;2.45;2.20;;;;;;;;;;4971312;28;20075;-76
2023/04/21 13:02:13;;;;;;;2.72;2.15;;;;;;;;;;4956253;28;20065;-75
2023/04/21 13:04:41;;;;;;;4.05;2.72;;;;;;;;;;4987103;28;20050;-75
2023/04/21 13:07:08;;;;;;;3.00;2.65;;;;;;;;;;4956357;28;20125;-74
2023/04/21 13:09:35;;;;;;;2.63;2.40;;;;;;;;;;4972017;28;20058;-75
2023/04/21 13:12:01;;;;;;;2.55;2.20;;;;;;;;;;4940643;28;20057;-75
2023/04/21 13:14:29;;;;;;;2.50;2.30;;;;;;;;;;4942832;28;20145;-75
2023/04/21 13:16:55;;;;;;;2.80;2.05;;;;;;;;;;4991013;28;20058;-74
2023/04/21 13:19:22;;;;;;;2.40;2.20;;;;;;;;;;4991184;28;20054;-74
2023/04/21 13:21:50;;;;;;;2.30;2.10;;;;;;;;;;4991304;28;20065;-75
2023/04/21 13:24:19;;;;;;;2.20;2.03;;;;;;;;;;4992406;28;20050;-74
2023/04/21 13:26:46;;;;;;;1.88;1.77;;;;;;;;;;4991229;28;20076;-74
2023/04/21 13:29:13;;;;;;;3.88;1.95;;;;;;;;;;4991866;28;20050;-74
2023/04/21 13:31:40;;;;;;;2.10;2.00;;;;;;;;;;4993833;28;20418;-75
2023/04/21 13:34:07;;;;;;;3.33;2.95;;;;;;;;;;4997731;28;20061;-75
2023/04/21 13:36:33;;;;;;;3.17;2.63;;;;;;;;;;4979622;28;20058;-77
2023/04/21 13:39:00;;;;;;;4.18;2.90;;;;;;;;;;4959269;28;20431;-77
2023/04/21 13:41:27;;;;;;;2.75;2.55;;;;;;;;;;4974547;28;20186;-77
2023/04/21 13:43:54;;;;;;;2.90;2.60;;;;;;;;;;4958845;28;20507;-76
2023/04/21 13:46:21;;;;;;;3.42;3.13;;;;;;;;;;4958125;28;20149;-76
2023/04/21 13:48:50;;;;;;;3.60;3.30;;;;;;;;;;4955379;28;20051;-77
2023/04/21 13:51:18;;;;;;;3.00;2.80;;;;;;;;;;4955117;28;20047;-77
2023/04/21 13:53:44;;;;;;;2.95;2.70;;;;;;;;;;4955674;28;20132;-77
2023/04/21 13:56:12;;;;;;;2.90;2.63;;;;;;;;;;4970636;28;20137;-77
2023/04/21 13:58:40;;;;;;;5.07;3.00;;;;;;;;;;4975023;28;20169;-76
2023/04/21 14:01:07;;;;;;;3.92;2.65;;;;;;;;;;4969205;28;20089;-77
2023/04/21 14:03:34;;;;;;;2.30;2.10;;;;;;;;;;4963983;28;20058;-77
2023/04/21 14:06:02;;;;;;;2.30;2.05;;;;;;;;;;4980155;28;20053;-76
2023/04/21 14:08:28;;;;;;;1.80;1.70;;;;;;;;;;4979193;28;20058;-77
2023/04/21 14:10:56;;;;;;;2.22;1.98;;;;;;;;;;5003932;28;20057;-76
2023/04/21 14:13:26;;;;;;;2.17;1.98;;;;;;;;;;4981329;28;20054;-76
2023/04/21 14:16:07;;;;;;;1.92;1.77;;;;;;;;;;4994150;28;20065;-76
2023/04/21 14:18:35;;;;;;;2.03;1.90;;;;;;;;;;4997077;28;20066;-76
2023/04/21 14:21:02;;;;;;;1.40;1.30;;;;;;;;;;4985158;28;20077;-77
2023/04/21 14:23:29;;;;;;;1.70;1.60;;;;;;;;;;4980587;28;20050;-76
2023/04/21 14:25:55;;;;;;;1.70;1.60;;;;;;;;;;4981294;28;20499;-77
2023/04/21 14:28:22;;;;;;;2.20;1.40;;;;;;;;;;4985918;28;20082;-75
2023/04/21 14:30:49;;;;;;;1.73;1.63;;;;;;;;;;4961824;28;20050;-76
2023/04/21 14:33:16;;;;;;;2.75;1.98;;;;;;;;;;4973454;28;20054;-77
2023/04/21 14:35:43;;;;;;;1.50;1.40;;;;;;;;;;4981984;28;20697;-75